Time;durP1;ratioP1;P1;durP2;ratioP2;P2;SDS_P1;SDS_P2;PMS_P1;PMS_P2;Temp;Humidity;BMP_temperature;BMP_pressure;BME280_temperature;BME280_humidity;BME280_pressure;Samples;Min_cycle;Max_cycle;Signal;HPM_P1;HPM_P2
2022/02/13 00:01:20;;;;;;;11.13;7.45;;;;;;;;;;5015884;28;20030;-79
2022/02/13 00:03:51;;;;;;;13.18;9.10;;;;;;;;;;5033412;28;20021;-79
2022/02/13 00:06:20;;;;;;;11.85;8.32;;;;;;;;;;5033345;28;20488;-80
2022/02/13 00:09:01;;;;;;;;;;;;;;;;;;;;;
2022/02/13 00:11:45;;;;;;;;;;;;;;;;;;;;;
2022/02/13 00:14:18;;;;;;;10.45;7.50;;;;;;;;;;5033107;28;20030;-80
2022/02/13 00:16:47;;;;;;;11.38;7.55;;;;;;;;;;5033375;28;20090;-79
2022/02/13 00:19:13;;;;;;;13.45;7.35;;;;;;;;;;5015217;28;20053;-79
2022/02/13 00:21:41;;;;;;;11.05;7.22;;;;;;;;;;5033140;28;20104;-80
2022/02/13 00:24:10;;;;;;;12.77;7.20;;;;;;;;;;5015183;28;20060;-81
2022/02/13 00:26:41;;;;;;;13.23;7.90;;;;;;;;;;5032797;28;20052;-79
2022/02/13 00:29:07;;;;;;;12.95;7.85;;;;;;;;;;5015028;28;20060;-80
2022/02/13 00:31:41;;;;;;;11.90;8.38;;;;;;;;;;5033170;28;20025;-80
2022/02/13 00:34:07;;;;;;;10.68;7.80;;;;;;;;;;5032751;28;20040;-79
2022/02/13 00:36:38;;;;;;;10.15;6.95;;;;;;;;;;5033124;28;20025;-79
2022/02/13 00:39:06;;;;;;;9.32;6.95;;;;;;;;;;5032772;28;20109;-80
2022/02/13 00:41:33;;;;;;;11.70;7.75;;;;;;;;;;5032981;28;20030;-80
2022/02/13 00:44:00;;;;;;;9.82;7.20;;;;;;;;;;5032807;28;20033;-81
2022/02/13 00:46:29;;;;;;;10.50;6.45;;;;;;;;;;5032630;28;20500;-79
2022/02/13 00:48:59;;;;;;;10.82;6.85;;;;;;;;;;5015000;28;20029;-80
2022/02/13 00:51:27;;;;;;;9.15;6.28;;;;;;;;;;5032692;28;20489;-79
2022/02/13 00:54:04;;;;;;;;;;;;;;;;;;;;;
2022/02/13 00:56:32;;;;;;;9.88;7.18;;;;;;;;;;5032772;28;20048;-79
2022/02/13 00:58:58;;;;;;;9.60;6.85;;;;;;;;;;5032714;28;20026;-79
2022/02/13 01:01:24;;;;;;;10.57;6.93;;;;;;;;;;5029705;28;20022;-80
2022/02/13 01:03:50;;;;;;;10.10;6.72;;;;;;;;;;5023522;28;20029;-78
2022/02/13 01:06:16;;;;;;;9.95;6.90;;;;;;;;;;5007141;28;20091;-80
2022/02/13 01:08:44;;;;;;;7.50;6.05;;;;;;;;;;5011802;28;20030;-80
2022/02/13 01:11:11;;;;;;;11.23;6.50;;;;;;;;;;5005126;28;20026;-80
2022/02/13 01:13:44;;;;;;;8.63;6.78;;;;;;;;;;5022685;28;20752;-81
2022/02/13 01:16:11;;;;;;;8.88;6.20;;;;;;;;;;5023026;28;20026;-79
2022/02/13 01:18:37;;;;;;;9.80;7.05;;;;;;;;;;5022385;28;20018;-80
2022/02/13 01:21:08;;;;;;;9.40;6.35;;;;;;;;;;5020762;28;20030;-80
2022/02/13 01:23:37;;;;;;;10.57;6.55;;;;;;;;;;5021627;28;20025;-80
2022/02/13 01:26:05;;;;;;;8.90;6.50;;;;;;;;;;5025936;28;20053;-80
2022/02/13 01:28:38;;;;;;;10.30;6.32;;;;;;;;;;5032167;28;20094;-80
2022/02/13 01:31:06;;;;;;;11.13;6.90;;;;;;;;;;5032518;28;20037;-80
2022/02/13 01:33:34;;;;;;;12.70;8.05;;;;;;;;;;5014412;28;20116;-79
2022/02/13 01:36:00;;;;;;;13.00;8.27;;;;;;;;;;5023176;28;21028;-79
2022/02/13 01:38:31;;;;;;;9.80;6.78;;;;;;;;;;5005773;28;20021;-80
2022/02/13 01:41:08;;;;;;;12.65;9.15;;;;;;;;;;5026190;28;20079;-80
2022/02/13 01:43:34;;;;;;;11.55;7.25;;;;;;;;;;5032046;28;20029;-80
2022/02/13 01:46:00;;;;;;;11.45;8.32;;;;;;;;;;5014526;28;20544;-79
2022/02/13 01:48:46;;;;;;;11.20;8.55;;;;;;;;;;5031912;28;20554;-79
2022/02/13 01:51:12;;;;;;;9.48;6.95;;;;;;;;;;5031962;28;20025;-79
2022/02/13 01:53:41;;;;;;;11.55;7.47;;;;;;;;;;5032291;28;20053;-80
2022/02/13 01:56:07;;;;;;;14.02;8.15;;;;;;;;;;5032031;28;20034;-80
2022/02/13 01:58:33;;;;;;;15.32;9.02;;;;;;;;;;5032149;28;20100;-81
2022/02/13 02:00:59;;;;;;;14.65;9.38;;;;;;;;;;5014483;28;20029;-81
2022/02/13 02:03:25;;;;;;;14.05;9.90;;;;;;;;;;5031855;28;20511;-79
2022/02/13 02:05:52;;;;;;;13.80;8.27;;;;;;;;;;5031940;28;20032;-80
2022/02/13 02:08:18;;;;;;;16.38;10.43;;;;;;;;;;5031770;28;20061;-80
2022/02/13 02:10:45;;;;;;;18.35;11.63;;;;;;;;;;5031983;28;20030;-80
2022/02/13 02:13:13;;;;;;;19.05;13.05;;;;;;;;;;5031862;28;20030;-80
2022/02/13 02:15:40;;;;;;;12.32;8.90;;;;;;;;;;5014205;28;20106;-80
2022/02/13 02:18:06;;;;;;;11.63;7.63;;;;;;;;;;5014148;28;20029;-80
2022/02/13 02:20:34;;;;;;;12.23;7.55;;;;;;;;;;5034470;28;20092;-80
2022/02/13 02:23:03;;;;;;;12.55;7.50;;;;;;;;;;5035486;28;20036;-81
2022/02/13 02:25:29;;;;;;;12.00;8.20;;;;;;;;;;5034990;28;20053;-80
2022/02/13 02:27:55;;;;;;;14.15;10.48;;;;;;;;;;5035312;28;20061;-80
2022/02/13 02:30:21;;;;;;;11.05;7.72;;;;;;;;;;5035271;28;20036;-78
2022/02/13 02:32:47;;;;;;;10.80;7.45;;;;;;;;;;5017616;28;20029;-80
2022/02/13 02:35:14;;;;;;;9.85;6.78;;;;;;;;;;5017407;28;20036;-79
2022/02/13 02:37:40;;;;;;;9.27;5.85;;;;;;;;;;5035241;28;20025;-80
2022/02/13 02:40:06;;;;;;;9.65;6.75;;;;;;;;;;5035185;28;20072;-80
2022/02/13 02:42:32;;;;;;;12.75;7.72;;;;;;;;;;5035112;28;20499;-80
2022/02/13 02:44:58;;;;;;;11.10;7.70;;;;;;;;;;5035145;28;20415;-80
2022/02/13 02:47:27;;;;;;;12.07;8.15;;;;;;;;;;5016994;28;20040;-81
2022/02/13 02:49:53;;;;;;;17.00;9.70;;;;;;;;;;5034944;28;20461;-80
2022/02/13 02:52:24;;;;;;;13.30;8.50;;;;;;;;;;5016969;28;20026;-81
2022/02/13 02:54:50;;;;;;;14.52;8.75;;;;;;;;;;5035057;28;20033;-80
2022/02/13 02:57:18;;;;;;;16.23;8.88;;;;;;;;;;5016928;28;20033;-81
2022/02/13 02:59:44;;;;;;;14.13;9.02;;;;;;;;;;5017129;28;20037;-80
2022/02/13 03:02:10;;;;;;;16.85;10.25;;;;;;;;;;5016854;28;20036;-80
2022/02/13 03:04:37;;;;;;;14.93;10.48;;;;;;;;;;5034656;28;20021;-81
2022/02/13 03:07:03;;;;;;;19.77;11.15;;;;;;;;;;5034746;28;20044;-80
2022/02/13 03:09:33;;;;;;;18.55;10.68;;;;;;;;;;5034483;28;20108;-80
2022/02/13 03:12:00;;;;;;;19.85;11.88;;;;;;;;;;5034599;28;20068;-80
2022/02/13 03:14:26;;;;;;;19.40;12.10;;;;;;;;;;5034431;28;20060;-80
2022/02/13 03:16:52;;;;;;;15.30;10.18;;;;;;;;;;5034438;28;20097;-78
2022/02/13 03:19:23;;;;;;;18.63;11.80;;;;;;;;;;5034301;28;20084;-77
2022/02/13 03:21:54;;;;;;;21.02;13.50;;;;;;;;;;5034401;28;20029;-77
2022/02/13 03:24:20;;;;;;;20.73;12.73;;;;;;;;;;5034188;28;20029;-77
2022/02/13 03:26:48;;;;;;;14.15;9.68;;;;;;;;;;5034180;28;20404;-77
2022/02/13 03:29:22;;;;;;;12.40;8.93;;;;;;;;;;5034067;28;20039;-77
2022/02/13 03:31:48;;;;;;;15.80;10.63;;;;;;;;;;5033727;28;20515;-77
2022/02/13 03:34:14;;;;;;;12.25;8.73;;;;;;;;;;5033926;28;20079;-76
2022/02/13 03:36:40;;;;;;;10.07;7.57;;;;;;;;;;5016434;28;20056;-78
2022/02/13 03:39:07;;;;;;;10.23;7.90;;;;;;;;;;5033877;28;20025;-78
2022/02/13 03:41:33;;;;;;;10.82;7.63;;;;;;;;;;5033929;28;20033;-78
2022/02/13 03:44:00;;;;;;;16.48;9.77;;;;;;;;;;5033973;28;20030;-77
2022/02/13 03:46:26;;;;;;;16.48;10.18;;;;;;;;;;5033721;28;20488;-77
2022/02/13 03:48:54;;;;;;;21.75;13.02;;;;;;;;;;5034009;28;20057;-77
2022/02/13 03:51:23;;;;;;;21.67;13.32;;;;;;;;;;5033619;28;20110;-77
2022/02/13 03:53:49;;;;;;;25.33;14.25;;;;;;;;;;5034148;28;20039;-77
2022/02/13 03:56:16;;;;;;;19.15;11.73;;;;;;;;;;5033555;28;20057;-77
2022/02/13 03:58:42;;;;;;;16.30;10.93;;;;;;;;;;5033721;28;20026;-77
2022/02/13 04:01:08;;;;;;;16.58;10.35;;;;;;;;;;5033544;28;20558;-77
2022/02/13 04:03:36;;;;;;;14.23;10.20;;;;;;;;;;5015762;28;20116;-78
2022/02/13 04:06:06;;;;;;;16.05;9.70;;;;;;;;;;5015894;28;20029;-78
2022/02/13 04:08:32;;;;;;;15.50;9.02;;;;;;;;;;5033481;28;20037;-77
2022/02/13 04:10:58;;;;;;;11.13;8.25;;;;;;;;;;5033473;28;20083;-78
2022/02/13 04:13:25;;;;;;;10.35;7.47;;;;;;;;;;5033403;28;20024;-79
2022/02/13 04:15:51;;;;;;;12.65;8.85;;;;;;;;;;5033439;28;20087;-79
2022/02/13 04:18:18;;;;;;;10.50;7.38;;;;;;;;;;5033097;28;20424;-78
2022/02/13 04:20:45;;;;;;;11.02;7.28;;;;;;;;;;5033117;28;20038;-78
2022/02/13 04:23:13;;;;;;;12.52;7.20;;;;;;;;;;5032995;28;20102;-79
2022/02/13 04:25:42;;;;;;;8.82;6.55;;;;;;;;;;5033005;28;20518;-79
2022/02/13 04:28:10;;;;;;;10.15;7.13;;;;;;;;;;5032739;28;20048;-78
2022/02/13 04:30:37;;;;;;;10.45;8.20;;;;;;;;;;5033110;28;20053;-79
2022/02/13 04:33:03;;;;;;;14.45;9.45;;;;;;;;;;5015236;28;20384;-79
2022/02/13 04:35:29;;;;;;;15.45;9.82;;;;;;;;;;5032903;28;20033;-78
2022/02/13 04:37:56;;;;;;;14.18;9.48;;;;;;;;;;5032931;28;20033;-79
2022/02/13 04:40:22;;;;;;;12.82;9.13;;;;;;;;;;5015248;28;20034;-79
2022/02/13 04:42:54;;;;;;;13.45;8.75;;;;;;;;;;5032041;28;20042;-78
2022/02/13 04:45:28;;;;;;;13.88;11.00;;;;;;;;;;5032696;28;20029;-79
2022/02/13 04:47:54;;;;;;;18.23;12.38;;;;;;;;;;5032946;28;20073;-79
2022/02/13 04:50:23;;;;;;;15.73;11.27;;;;;;;;;;5032548;28;20032;-79
2022/02/13 04:52:52;;;;;;;24.17;12.38;;;;;;;;;;5032545;28;20029;-79
2022/02/13 04:55:18;;;;;;;20.05;12.10;;;;;;;;;;5032684;28;20033;-78
2022/02/13 04:57:54;;;;;;;18.42;9.82;;;;;;;;;;5014870;28;20026;-79
2022/02/13 05:00:28;;;;;;;14.85;9.35;;;;;;;;;;5014548;28;20115;-79
2022/02/13 05:02:54;;;;;;;12.93;8.33;;;;;;;;;;5032366;28;20034;-79
2022/02/13 05:05:25;;;;;;;10.48;7.43;;;;;;;;;;5032742;28;20032;-79
2022/02/13 05:07:53;;;;;;;13.48;10.15;;;;;;;;;;5014611;28;20124;-79
2022/02/13 05:10:20;;;;;;;15.63;9.93;;;;;;;;;;5032612;28;20154;-79
2022/02/13 05:12:48;;;;;;;15.88;12.60;;;;;;;;;;5032322;28;20404;-79
2022/02/13 05:15:15;;;;;;;17.48;12.18;;;;;;;;;;5014774;28;20072;-79
2022/02/13 05:17:41;;;;;;;13.15;9.45;;;;;;;;;;5014526;28;20033;-79
2022/02/13 05:20:07;;;;;;;12.52;9.30;;;;;;;;;;5032338;28;20079;-79
2022/02/13 05:22:34;;;;;;;12.30;7.68;;;;;;;;;;5032387;28;20021;-79
2022/02/13 05:25:00;;;;;;;12.65;8.48;;;;;;;;;;5014412;28;20095;-79
2022/02/13 05:27:26;;;;;;;10.65;7.38;;;;;;;;;;5032361;28;20457;-79
2022/02/13 05:29:52;;;;;;;11.15;8.43;;;;;;;;;;5032202;28;20381;-79
2022/02/13 05:32:18;;;;;;;9.93;8.20;;;;;;;;;;5014468;28;20033;-79
2022/02/13 05:34:44;;;;;;;10.00;8.15;;;;;;;;;;5031969;28;20498;-79
2022/02/13 05:37:15;;;;;;;15.57;10.85;;;;;;;;;;5032233;28;20025;-79
2022/02/13 05:39:48;;;;;;;21.88;15.82;;;;;;;;;;5032247;28;20032;-79
2022/02/13 05:42:15;;;;;;;25.23;17.45;;;;;;;;;;5032401;28;20024;-78
2022/02/13 05:44:41;;;;;;;33.47;24.08;;;;;;;;;;5031951;28;20032;-78
2022/02/13 05:47:07;;;;;;;27.63;20.95;;;;;;;;;;5014750;28;20508;-79
2022/02/13 05:49:35;;;;;;;31.05;24.00;;;;;;;;;;5032282;28;20087;-79
2022/02/13 05:52:01;;;;;;;30.58;18.42;;;;;;;;;;5014265;28;20064;-79
2022/02/13 05:54:27;;;;;;;35.67;22.65;;;;;;;;;;5015711;28;20061;-79
2022/02/13 05:56:53;;;;;;;31.60;21.90;;;;;;;;;;5017998;28;20057;-79
2022/02/13 05:59:27;;;;;;;30.92;18.42;;;;;;;;;;5035912;28;20443;-79
2022/02/13 06:01:55;;;;;;;24.02;16.02;;;;;;;;;;5017851;28;20095;-79
2022/02/13 06:04:21;;;;;;;38.88;26.15;;;;;;;;;;5035950;28;20041;-79
2022/02/13 06:06:52;;;;;;;24.77;19.95;;;;;;;;;;5035627;28;20439;-79
2022/02/13 06:09:19;;;;;;;28.00;19.90;;;;;;;;;;5035806;28;20060;-79
2022/02/13 06:11:45;;;;;;;23.08;13.85;;;;;;;;;;5035534;28;20030;-79
2022/02/13 06:14:12;;;;;;;23.10;16.95;;;;;;;;;;5018130;28;20095;-79
2022/02/13 06:16:38;;;;;;;20.65;14.40;;;;;;;;;;5035551;28;20398;-79
2022/02/13 06:19:07;;;;;;;21.42;14.88;;;;;;;;;;5035651;28;20025;-79
2022/02/13 06:21:41;;;;;;;23.92;16.13;;;;;;;;;;5017718;28;20396;-79
2022/02/13 06:24:07;;;;;;;18.10;13.57;;;;;;;;;;5017633;28;20057;-79
2022/02/13 06:26:35;;;;;;;20.35;13.52;;;;;;;;;;5034985;28;20366;-79
2022/02/13 06:29:02;;;;;;;19.33;12.15;;;;;;;;;;5035392;28;20109;-79
2022/02/13 06:31:28;;;;;;;21.33;15.45;;;;;;;;;;5035230;28;20025;-79
2022/02/13 06:33:54;;;;;;;18.05;13.63;;;;;;;;;;5035126;28;20030;-79
2022/02/13 06:36:22;;;;;;;18.10;14.38;;;;;;;;;;5035278;28;20370;-79
2022/02/13 06:38:48;;;;;;;20.05;13.60;;;;;;;;;;5034925;28;20029;-78
2022/02/13 06:41:17;;;;;;;15.70;12.60;;;;;;;;;;5035158;28;20499;-78
2022/02/13 06:43:43;;;;;;;17.85;13.57;;;;;;;;;;5034781;28;20108;-79
2022/02/13 06:46:09;;;;;;;21.10;14.93;;;;;;;;;;5035134;28;20578;-78
2022/02/13 06:48:36;;;;;;;21.63;15.82;;;;;;;;;;5034830;28;20029;-79
2022/02/13 06:51:02;;;;;;;23.00;16.92;;;;;;;;;;5034807;28;20053;-79
2022/02/13 06:53:28;;;;;;;26.15;17.02;;;;;;;;;;5016842;28;20095;-79
2022/02/13 06:55:57;;;;;;;27.45;19.95;;;;;;;;;;5034524;28;20474;-79
2022/02/13 06:58:23;;;;;;;35.97;25.67;;;;;;;;;;5034680;28;20464;-79
2022/02/13 07:01:02;;;;;;;;;;;;;;;;;;;;;
2022/02/13 07:06:35;;;;;;;52.45;36.13;;;;;;;;;;5019558;28;20034;-79
2022/02/13 07:09:01;;;;;;;50.88;34.47;;;;;;;;;;5034287;28;20112;-79
2022/02/13 07:11:27;;;;;;;48.22;33.63;;;;;;;;;;5034545;28;20037;-78
2022/02/13 07:13:53;;;;;;;47.47;30.77;;;;;;;;;;5034409;28;20032;-79
2022/02/13 07:16:19;;;;;;;46.63;31.13;;;;;;;;;;5034326;28;20435;-79
2022/02/13 07:18:45;;;;;;;34.47;25.20;;;;;;;;;;5034437;28;20104;-79
2022/02/13 07:21:11;;;;;;;33.83;22.67;;;;;;;;;;5034168;28;20087;-79
2022/02/13 07:23:37;;;;;;;35.50;25.05;;;;;;;;;;5034487;28;20029;-79
2022/02/13 07:26:04;;;;;;;35.78;24.35;;;;;;;;;;5033806;28;20049;-79
2022/02/13 07:31:15;;;;;;;43.47;33.47;;;;;;;;;;5034316;28;20067;-79
2022/02/13 07:33:41;;;;;;;43.47;29.48;;;;;;;;;;5034171;28;20025;-79
2022/02/13 07:36:07;;;;;;;44.85;33.28;;;;;;;;;;5034013;28;20065;-79
2022/02/13 07:38:33;;;;;;;38.80;27.88;;;;;;;;;;5034169;28;20025;-79
2022/02/13 07:41:00;;;;;;;33.72;25.17;;;;;;;;;;5033799;28;20076;-79
2022/02/13 07:43:26;;;;;;;31.13;23.65;;;;;;;;;;5034018;28;20096;-79
2022/02/13 07:45:52;;;;;;;31.58;22.55;;;;;;;;;;5033790;28;20107;-78
2022/02/13 07:48:18;;;;;;;43.30;31.90;;;;;;;;;;5033676;28;20041;-80
2022/02/13 07:50:44;;;;;;;55.85;38.55;;;;;;;;;;5022345;28;20107;-79
2022/02/13 07:53:11;;;;;;;85.75;57.25;;;;;;;;;;5026953;28;20037;-80
2022/02/13 07:55:37;;;;;;;71.18;51.70;;;;;;;;;;5033745;28;20034;-79
2022/02/13 07:58:03;;;;;;;38.25;28.70;;;;;;;;;;5033371;28;20029;-79
2022/02/13 08:00:29;;;;;;;46.92;32.05;;;;;;;;;;5033576;28;20370;-78
2022/02/13 08:02:55;;;;;;;40.35;28.48;;;;;;;;;;5015804;28;20108;-79
2022/02/13 08:05:22;;;;;;;42.15;31.30;;;;;;;;;;5015748;28;20080;-79
2022/02/13 08:07:49;;;;;;;38.72;29.98;;;;;;;;;;5033445;28;20102;-79
2022/02/13 08:10:26;;;;;;;40.97;31.55;;;;;;;;;;5015530;28;20040;-79
2022/02/13 08:12:53;;;;;;;41.47;32.35;;;;;;;;;;5015508;28;20034;-79
2022/02/13 08:15:19;;;;;;;34.63;30.10;;;;;;;;;;5033375;28;20033;-80
2022/02/13 08:17:45;;;;;;;51.95;37.72;;;;;;;;;;5033063;28;20090;-79
2022/02/13 08:20:14;;;;;;;54.47;40.17;;;;;;;;;;5033183;28;20059;-80
2022/02/13 08:22:43;;;;;;;39.00;29.30;;;;;;;;;;5033249;28;20464;-78
2022/02/13 08:27:57;;;;;;;41.00;29.60;;;;;;;;;;5018899;28;20500;-78
2022/02/13 08:30:24;;;;;;;44.97;32.08;;;;;;;;;;5033011;28;20045;-78
2022/02/13 08:32:50;;;;;;;36.55;28.25;;;;;;;;;;5032856;28;20029;-78
2022/02/13 08:35:24;;;;;;;36.65;28.52;;;;;;;;;;5033151;28;20427;-78
2022/02/13 08:37:52;;;;;;;74.88;55.65;;;;;;;;;;5032820;28;20034;-79
2022/02/13 08:40:23;;;;;;;75.88;52.75;;;;;;;;;;5015194;28;20025;-78
2022/02/13 08:42:49;;;;;;;54.33;40.95;;;;;;;;;;5015164;28;20087;-78
2022/02/13 08:45:16;;;;;;;49.17;36.42;;;;;;;;;;5032781;28;20026;-78
2022/02/13 08:47:49;;;;;;;46.80;36.95;;;;;;;;;;5032502;28;20087;-78
2022/02/13 08:50:15;;;;;;;42.63;30.85;;;;;;;;;;5015012;28;20386;-79
2022/02/13 08:52:41;;;;;;;37.97;30.13;;;;;;;;;;5014901;28;20377;-79
2022/02/13 08:55:15;;;;;;;39.22;28.80;;;;;;;;;;5014876;28;20041;-78
2022/02/13 08:57:42;;;;;;;33.63;27.25;;;;;;;;;;5032695;28;20030;-78
2022/02/13 09:00:11;;;;;;;30.88;24.73;;;;;;;;;;5014883;28;20422;-78
2022/02/13 09:02:37;;;;;;;30.30;22.08;;;;;;;;;;5032493;28;20373;-78
2022/02/13 09:05:04;;;;;;;23.85;20.33;;;;;;;;;;5032546;28;20036;-78
2022/02/13 09:07:51;;;;;;;27.27;17.75;;;;;;;;;;5032412;28;20025;-79
2022/02/13 09:10:18;;;;;;;24.25;19.00;;;;;;;;;;5014619;28;20029;-79
2022/02/13 09:12:49;;;;;;;27.98;21.67;;;;;;;;;;5032601;28;20031;-80
2022/02/13 09:15:16;;;;;;;46.92;31.58;;;;;;;;;;5032225;28;20122;-79
2022/02/13 09:17:43;;;;;;;85.90;45.08;;;;;;;;;;5032396;28;20025;-80
2022/02/13 09:20:09;;;;;;;45.03;31.88;;;;;;;;;;5032081;28;20037;-80
2022/02/13 09:22:35;;;;;;;30.77;24.13;;;;;;;;;;5032530;28;20026;-79
2022/02/13 09:25:11;;;;;;;28.35;22.20;;;;;;;;;;5014218;28;20060;-80
2022/02/13 09:27:40;;;;;;;31.48;23.95;;;;;;;;;;5032284;28;20103;-80
2022/02/13 09:30:07;;;;;;;32.10;24.15;;;;;;;;;;5034524;28;20033;-80
2022/02/13 09:32:33;;;;;;;25.65;22.55;;;;;;;;;;5036454;28;20048;-79
2022/02/13 09:34:59;;;;;;;20.77;18.40;;;;;;;;;;5018344;28;20118;-80
2022/02/13 09:37:25;;;;;;;24.23;20.13;;;;;;;;;;5036228;28;20481;-80
2022/02/13 09:39:52;;;;;;;18.05;14.45;;;;;;;;;;5018564;28;20033;-80
2022/02/13 09:42:21;;;;;;;18.60;15.48;;;;;;;;;;5036204;28;20087;-80
2022/02/13 09:44:48;;;;;;;19.00;15.07;;;;;;;;;;5036108;28;20063;-79
2022/02/13 09:47:15;;;;;;;18.73;15.73;;;;;;;;;;5036069;28;20026;-80
2022/02/13 09:49:41;;;;;;;22.42;15.90;;;;;;;;;;5036089;28;20033;-79
2022/02/13 09:52:09;;;;;;;46.60;30.88;;;;;;;;;;5035900;28;20095;-80
2022/02/13 09:54:36;;;;;;;28.23;23.10;;;;;;;;;;5018174;28;20116;-78
2022/02/13 09:59:47;;;;;;;;;;;;;;;;;;5036297;28;20125;-78
2022/02/13 10:02:30;;;;;;;24.90;18.90;;;;;;;;;;5018098;28;19946;-78
2022/02/13 10:04:56;;;;;;;22.17;17.52;;;;;;;;;;5035878;28;20021;-79
2022/02/13 10:07:23;;;;;;;16.92;14.15;;;;;;;;;;5035655;28;20034;-78
2022/02/13 10:09:57;;;;;;;16.13;12.10;;;;;;;;;;5035699;28;20104;-78
2022/02/13 10:12:30;;;;;;;17.80;12.35;;;;;;;;;;5035630;28;20033;-78
2022/02/13 10:14:56;;;;;;;14.13;11.65;;;;;;;;;;5018278;28;20095;-78
2022/02/13 10:17:32;;;;;;;14.85;11.55;;;;;;;;;;5035370;28;20159;-79
2022/02/13 10:19:58;;;;;;;13.57;11.25;;;;;;;;;;5017867;28;20017;-78
2022/02/13 10:22:45;;;;;;;14.07;11.93;;;;;;;;;;5035259;28;20384;-78
2022/02/13 10:25:17;;;;;;;13.07;11.68;;;;;;;;;;5035013;28;20045;-79
2022/02/13 10:27:47;;;;;;;15.35;11.80;;;;;;;;;;5035435;28;20484;-78
2022/02/13 10:30:13;;;;;;;14.88;12.85;;;;;;;;;;5035350;28;20488;-78
2022/02/13 10:32:42;;;;;;;14.95;12.27;;;;;;;;;;5035362;28;20026;-78
2022/02/13 10:35:12;;;;;;;15.77;12.38;;;;;;;;;;5035139;28;20030;-79
2022/02/13 10:37:39;;;;;;;17.85;14.10;;;;;;;;;;5017568;28;20030;-78
2022/02/13 10:40:15;;;;;;;17.88;13.93;;;;;;;;;;5034197;28;20025;-79
2022/02/13 10:42:46;;;;;;;14.52;11.93;;;;;;;;;;5034400;28;20164;-79
2022/02/13 10:45:19;;;;;;;13.35;11.07;;;;;;;;;;5034982;28;20022;-78
2022/02/13 10:47:46;;;;;;;16.27;12.80;;;;;;;;;;5034669;28;20044;-79
2022/02/13 10:50:17;;;;;;;13.00;10.90;;;;;;;;;;5034795;28;20051;-79
2022/02/13 10:52:47;;;;;;;19.33;13.32;;;;;;;;;;5034663;28;20025;-78
2022/02/13 10:55:14;;;;;;;15.20;12.57;;;;;;;;;;5034579;28;20025;-78
2022/02/13 10:57:41;;;;;;;15.48;13.13;;;;;;;;;;5034637;28;20033;-78
2022/02/13 11:00:11;;;;;;;16.08;12.32;;;;;;;;;;5034736;28;20033;-79
2022/02/13 11:02:40;;;;;;;14.50;12.88;;;;;;;;;;5034430;28;20075;-79
2022/02/13 11:05:10;;;;;;;15.13;12.15;;;;;;;;;;5016857;28;20431;-78
2022/02/13 11:07:39;;;;;;;12.82;11.18;;;;;;;;;;5016522;28;20095;-78
2022/02/13 11:10:09;;;;;;;13.50;11.75;;;;;;;;;;5034690;28;20428;-78
2022/02/13 11:12:35;;;;;;;15.95;12.30;;;;;;;;;;5016917;28;20033;-78
2022/02/13 11:15:15;;;;;;;13.65;11.15;;;;;;;;;;5034470;28;20365;-78
2022/02/13 11:17:42;;;;;;;15.48;11.27;;;;;;;;;;5034515;28;20057;-78
2022/02/13 11:20:11;;;;;;;12.30;10.05;;;;;;;;;;5034237;28;20507;-78
2022/02/13 11:22:38;;;;;;;12.40;10.20;;;;;;;;;;5034390;28;20604;-78
2022/02/13 11:25:12;;;;;;;13.70;11.75;;;;;;;;;;5034249;28;20084;-78
2022/02/13 11:27:53;;;;;;;13.82;11.27;;;;;;;;;;5034242;28;20550;-78
2022/02/13 11:30:37;;;;;;;10.63;9.35;;;;;;;;;;5016500;28;20079;-78
2022/02/13 11:33:04;;;;;;;12.30;9.93;;;;;;;;;;5016433;28;20473;-78
2022/02/13 11:36:03;;;;;;;14.27;10.80;;;;;;;;;;5033999;28;20388;-79
2022/02/13 11:38:38;;;;;;;11.65;9.98;;;;;;;;;;4994596;28;20029;-78
2022/02/13 11:41:10;;;;;;;12.55;9.93;;;;;;;;;;5016060;28;20468;-78
2022/02/13 11:43:48;;;;;;;11.68;10.10;;;;;;;;;;5034049;28;20033;-78
2022/02/13 11:46:16;;;;;;;12.27;10.55;;;;;;;;;;5033517;28;20029;-79
2022/02/13 11:48:43;;;;;;;13.90;11.50;;;;;;;;;;5033963;28;20044;-78
2022/02/13 11:51:13;;;;;;;12.43;10.10;;;;;;;;;;5033589;28;20028;-79
2022/02/13 11:53:43;;;;;;;14.05;10.65;;;;;;;;;;5033377;28;20068;-78
2022/02/13 11:56:29;;;;;;;12.23;10.40;;;;;;;;;;5033589;28;20383;-79
2022/02/13 11:58:56;;;;;;;12.90;11.05;;;;;;;;;;5033728;28;20033;-79
2022/02/13 12:01:42;;;;;;;15.60;11.98;;;;;;;;;;5015711;28;20053;-78
2022/02/13 12:04:08;;;;;;;17.45;13.10;;;;;;;;;;5033625;28;20029;-79
2022/02/13 12:06:35;;;;;;;14.55;11.63;;;;;;;;;;5015380;28;20104;-79
2022/02/13 12:09:01;;;;;;;13.38;10.90;;;;;;;;;;5033355;28;20476;-79
2022/02/13 12:11:31;;;;;;;13.35;11.38;;;;;;;;;;5033159;28;20064;-79
2022/02/13 12:13:58;;;;;;;14.40;11.60;;;;;;;;;;5015655;28;20080;-78
2022/02/13 12:16:28;;;;;;;13.68;11.35;;;;;;;;;;5032894;28;20030;-78
2022/02/13 12:18:54;;;;;;;12.45;10.25;;;;;;;;;;5033264;28;20113;-78
2022/02/13 12:21:42;;;;;;;10.48;9.40;;;;;;;;;;5015216;28;20030;-79
2022/02/13 12:24:10;;;;;;;13.00;10.00;;;;;;;;;;5032981;28;20121;-78
2022/02/13 12:26:36;;;;;;;12.80;10.93;;;;;;;;;;5032830;28;20124;-78
2022/02/13 12:29:05;;;;;;;11.95;9.00;;;;;;;;;;5015291;28;20095;-78
2022/02/13 12:31:31;;;;;;;13.52;10.30;;;;;;;;;;5033127;28;20117;-79
2022/02/13 12:33:59;;;;;;;13.77;11.15;;;;;;;;;;5015336;28;20468;-78
2022/02/13 12:36:26;;;;;;;11.57;9.10;;;;;;;;;;5033013;28;20029;-79
2022/02/13 12:38:59;;;;;;;17.73;13.70;;;;;;;;;;5032858;28;20028;-78
2022/02/13 12:41:46;;;;;;;13.13;10.48;;;;;;;;;;5032775;28;20082;-78
2022/02/13 12:44:16;;;;;;;11.63;9.68;;;;;;;;;;5032357;28;20044;-79
2022/02/13 12:46:45;;;;;;;12.63;9.90;;;;;;;;;;5032697;28;20491;-79
2022/02/13 12:49:21;;;;;;;;;;;;;;;;;;;;;
2022/02/13 12:51:50;;;;;;;12.02;9.95;;;;;;;;;;5013216;28;20036;-79
2022/02/13 12:54:19;;;;;;;11.63;10.23;;;;;;;;;;5012981;28;20362;-78
2022/02/13 12:56:47;;;;;;;11.75;9.90;;;;;;;;;;4995540;28;20022;-78
2022/02/13 12:59:13;;;;;;;11.45;9.95;;;;;;;;;;5013065;28;20068;-78
2022/02/13 13:01:39;;;;;;;14.50;10.57;;;;;;;;;;5012255;28;20022;-78
2022/02/13 13:04:05;;;;;;;14.45;10.75;;;;;;;;;;5011611;28;20033;-78
2022/02/13 13:06:32;;;;;;;13.98;10.35;;;;;;;;;;5020710;28;20078;-78
2022/02/13 13:08:59;;;;;;;13.60;9.90;;;;;;;;;;5031552;28;20480;-78
2022/02/13 13:11:29;;;;;;;13.27;11.10;;;;;;;;;;5031673;28;20112;-78
2022/02/13 13:14:04;;;;;;;13.18;10.73;;;;;;;;;;5014850;28;20030;-78
2022/02/13 13:16:36;;;;;;;13.57;10.43;;;;;;;;;;5032309;28;20028;-78
2022/02/13 13:19:05;;;;;;;12.40;10.20;;;;;;;;;;5032412;28;20045;-78
2022/02/13 13:21:47;;;;;;;13.90;10.80;;;;;;;;;;5032243;28;20033;-79
2022/02/13 13:24:23;;;;;;;12.95;11.23;;;;;;;;;;5032278;28;20038;-78
2022/02/13 13:26:49;;;;;;;17.88;11.52;;;;;;;;;;5032233;28;20029;-78
2022/02/13 13:29:18;;;;;;;16.42;12.35;;;;;;;;;;5032306;28;20034;-79
2022/02/13 13:31:56;;;;;;;15.50;11.40;;;;;;;;;;5032175;28;20076;-78
2022/02/13 13:34:23;;;;;;;17.50;14.30;;;;;;;;;;5031983;28;20036;-79
2022/02/13 13:36:49;;;;;;;81.38;59.28;;;;;;;;;;5032150;28;20025;-79
2022/02/13 13:39:44;;;;;;;49.38;39.15;;;;;;;;;;5032380;28;20119;-79
2022/02/13 13:42:14;;;;;;;35.53;28.13;;;;;;;;;;5006212;28;20041;-77
2022/02/13 13:44:41;;;;;;;14.48;12.93;;;;;;;;;;5032094;28;20040;-77
2022/02/13 13:47:07;;;;;;;14.57;11.45;;;;;;;;;;5032026;28;20519;-77
2022/02/13 13:49:36;;;;;;;23.33;17.63;;;;;;;;;;5031742;28;20086;-77
2022/02/13 13:52:02;;;;;;;16.80;12.52;;;;;;;;;;5032123;28;20022;-77
2022/02/13 13:54:28;;;;;;;15.25;12.38;;;;;;;;;;5031806;28;20486;-77
2022/02/13 13:56:54;;;;;;;11.68;10.30;;;;;;;;;;5014339;28;20457;-77
2022/02/13 13:59:35;;;;;;;14.73;9.82;;;;;;;;;;5110022;27;20938;-76
2022/02/13 14:02:01;;;;;;;13.55;10.13;;;;;;;;;;5110250;28;20036;-76
2022/02/13 14:04:30;;;;;;;12.73;9.85;;;;;;;;;;5108604;28;20020;-76
2022/02/13 14:07:02;;;;;;;13.27;10.30;;;;;;;;;;5109413;28;20119;-79
2022/02/13 14:09:29;;;;;;;13.50;10.48;;;;;;;;;;5105678;28;20420;-78
2022/02/13 14:11:55;;;;;;;10.43;9.32;;;;;;;;;;5109636;28;20720;-78
2022/02/13 14:14:21;;;;;;;11.32;10.10;;;;;;;;;;5109844;28;20106;-78
2022/02/13 14:16:47;;;;;;;12.48;9.90;;;;;;;;;;5109780;28;20028;-78
2022/02/13 14:19:13;;;;;;;14.10;10.55;;;;;;;;;;5109571;28;20028;-78
2022/02/13 14:21:39;;;;;;;10.93;8.38;;;;;;;;;;5109961;28;20031;-78
2022/02/13 14:24:06;;;;;;;10.73;9.27;;;;;;;;;;5108965;28;20023;-78
2022/02/13 14:26:32;;;;;;;12.13;9.77;;;;;;;;;;5109506;28;20034;-78
2022/02/13 14:28:58;;;;;;;11.25;9.20;;;;;;;;;;5109766;28;20069;-78
2022/02/13 14:31:27;;;;;;;28.50;23.67;;;;;;;;;;5109433;28;20023;-78
2022/02/13 14:33:53;;;;;;;13.65;12.20;;;;;;;;;;5109648;28;20031;-78
2022/02/13 14:36:19;;;;;;;32.60;23.65;;;;;;;;;;5109470;28;20493;-78
2022/02/13 14:38:45;;;;;;;11.93;10.60;;;;;;;;;;5108898;28;20046;-78
2022/02/13 14:41:11;;;;;;;12.75;9.13;;;;;;;;;;5108731;28;20030;-78
2022/02/13 14:43:38;;;;;;;10.77;9.20;;;;;;;;;;5109528;28;20024;-78
2022/02/13 14:46:04;;;;;;;11.60;9.00;;;;;;;;;;5109416;28;20034;-78
2022/02/13 14:48:37;;;;;;;10.00;8.98;;;;;;;;;;5109039;28;20055;-78